createdAt,value
2016-12-14T00:00:31.066Z,2.83
2016-12-14T00:01:41.393Z,2.83
2016-12-14T00:02:50.811Z,2.93
2016-12-14T00:04:01.142Z,2.83
2016-12-14T00:05:11.159Z,2.81
2016-12-14T00:06:21.210Z,2.83
2016-12-14T00:07:31.530Z,2.85
2016-12-14T00:08:41.554Z,2.81
2016-12-14T00:09:51.621Z,2.87
2016-12-14T00:11:01.624Z,2.78
2016-12-14T00:12:11.628Z,2.77
2016-12-14T00:13:21.967Z,2.76
2016-12-14T00:14:31.977Z,2.81
2016-12-14T00:15:41.989Z,2.76
2016-12-14T00:16:52.002Z,2.73
2016-12-14T00:18:02.368Z,2.76
2016-12-14T00:19:12.074Z,2.77
2016-12-14T00:20:22.391Z,2.69
2016-12-14T00:21:32.717Z,2.76
2016-12-14T00:22:43.033Z,2.67
2016-12-14T00:23:53.046Z,2.59
2016-12-14T00:25:03.073Z,2.6
2016-12-14T00:26:13.084Z,2.66
2016-12-14T00:27:23.082Z,2.65
2016-12-14T00:28:33.403Z,2.77
2016-12-14T00:29:43.414Z,2.6
2016-12-14T00:30:53.760Z,2.7
2016-12-14T00:32:04.079Z,2.72
2016-12-14T00:33:14.402Z,2.77
2016-12-14T00:34:24.418Z,2.66
2016-12-14T00:35:34.453Z,2.58
2016-12-14T00:36:44.160Z,2.65
2016-12-14T00:37:54.170Z,2.69
2016-12-14T00:39:04.498Z,2.62
2016-12-14T00:40:14.522Z,2.63
2016-12-14T00:41:24.843Z,2.72
2016-12-14T00:42:34.857Z,2.63
2016-12-14T00:43:44.871Z,2.62
2016-12-14T00:44:55.236Z,2.62
2016-12-14T00:46:05.247Z,2.59
2016-12-14T00:47:15.566Z,2.55
2016-12-14T00:48:25.618Z,2.51
2016-12-14T00:49:35.009Z,2.6
2016-12-14T00:50:45.371Z,2.48
2016-12-14T00:51:55.397Z,2.49
2016-12-14T00:53:05.739Z,2.48
2016-12-14T00:54:15.747Z,2.45
2016-12-14T00:55:25.457Z,2.42
2016-12-14T00:56:35.498Z,2.48
2016-12-14T00:57:45.835Z,2.41
2016-12-14T00:58:55.842Z,2.4
2016-12-14T01:00:05.243Z,2.4
2016-12-14T01:01:15.580Z,2.34
2016-12-14T01:02:25.606Z,2.34
2016-12-14T01:03:35.918Z,2.4
2016-12-14T01:04:46.246Z,2.4
2016-12-14T01:05:56.578Z,2.44
2016-12-14T01:07:06.299Z,2.4
2016-12-14T01:08:16.331Z,2.41
2016-12-14T01:09:26.370Z,2.38
2016-12-14T01:10:36.447Z,2.47
2016-12-14T01:11:46.487Z,2.38
2016-12-14T01:12:56.183Z,2.51
2016-12-14T01:14:06.505Z,2.55
2016-12-14T01:15:16.821Z,2.55
2016-12-14T01:16:26.562Z,2.58
2016-12-14T01:17:36.883Z,2.58
2016-12-14T01:18:46.914Z,2.63
2016-12-14T01:19:57.247Z,2.63
2016-12-14T01:21:07.581Z,2.6
2016-12-14T01:22:17.589Z,2.58
2016-12-14T01:23:27.600Z,2.63
2016-12-14T01:24:37.609Z,2.55
2016-12-14T01:25:47.930Z,2.54
2016-12-14T01:26:58.266Z,2.52
2016-12-14T01:28:08.284Z,2.58
2016-12-14T01:29:18.360Z,2.58
2016-12-14T01:30:28.397Z,2.58
2016-12-14T01:31:38.418Z,2.59
2016-12-14T01:32:48.145Z,2.59
2016-12-14T01:33:58.463Z,2.62
2016-12-14T01:35:08.807Z,2.62
2016-12-14T01:36:18.512Z,2.69
2016-12-14T01:37:28.831Z,2.77
2016-12-14T01:38:38.844Z,2.73
2016-12-14T01:39:47.951Z,2.7
2016-12-14T01:40:57.642Z,2.85
2016-12-14T01:42:07.384Z,2.8
2016-12-14T01:43:17.711Z,2.88
2016-12-14T01:44:27.731Z,2.88
2016-12-14T01:45:37.752Z,2.85
2016-12-14T01:46:47.769Z,2.85
2016-12-14T01:47:58.092Z,2.91
2016-12-14T01:49:08.138Z,2.87
2016-12-14T01:50:18.451Z,2.95
2016-12-14T01:51:28.455Z,2.95
2016-12-14T01:52:38.774Z,2.95
2016-12-14T01:53:48.787Z,2.93
2016-12-14T01:54:59.107Z,2.98
2016-12-14T01:56:08.187Z,2.93
2016-12-14T01:57:18.507Z,2.9
2016-12-14T01:58:28.532Z,2.93
2016-12-14T01:59:38.250Z,2.96
2016-12-14T02:00:48.275Z,2.98
2016-12-14T02:01:58.317Z,3.08
2016-12-14T02:03:08.635Z,3.11
2016-12-14T02:04:18.642Z,3.09
2016-12-14T02:05:28.662Z,3.14
2016-12-14T02:06:38.688Z,3.17
2016-12-14T02:07:48.696Z,3.16
2016-12-14T02:08:58.713Z,3.23
2016-12-14T02:10:08.422Z,3.23
2016-12-14T02:11:18.475Z,3.26
2016-12-14T02:12:28.858Z,3.16
2016-12-14T02:13:38.554Z,3.2
2016-12-14T02:14:48.900Z,3.27
2016-12-14T02:15:58.611Z,3.13
2016-12-14T02:17:08.936Z,3.16
2016-12-14T02:18:18.951Z,3.11
2016-12-14T02:19:29.287Z,3.14
2016-12-14T02:20:38.982Z,3.13
2016-12-14T02:21:48.985Z,3.19
2016-12-14T02:22:58.992Z,3.13
2016-12-14T02:24:08.702Z,3.16
2016-12-14T02:25:18.727Z,3.27
2016-12-14T02:26:28.737Z,3.29
2016-12-14T02:27:39.074Z,3.19
2016-12-14T02:28:49.422Z,3.27
2016-12-14T02:29:59.443Z,3.39
2016-12-14T02:31:09.769Z,3.3
2016-12-14T02:32:20.080Z,3.32
2016-12-14T02:33:30.446Z,3.37
2016-12-14T02:34:40.143Z,3.27
2016-12-14T02:35:50.466Z,3.24
2016-12-14T02:37:00.471Z,3.26
2016-12-14T02:38:10.173Z,3.27
2016-12-14T02:39:20.175Z,3.23
2016-12-14T02:40:29.877Z,3.24
2016-12-14T02:41:40.218Z,3.24
2016-12-14T02:42:49.975Z,3.27
2016-12-14T02:43:59.992Z,3.24
2016-12-14T02:45:10.049Z,3.32
2016-12-14T02:46:20.379Z,3.23
2016-12-14T02:47:30.712Z,3.23
2016-12-14T02:48:40.764Z,3.29
2016-12-14T02:49:51.091Z,3.26
2016-12-14T02:51:01.108Z,3.2
2016-12-14T02:52:11.429Z,3.26
2016-12-14T02:53:21.127Z,3.34
2016-12-14T02:54:31.143Z,3.32
2016-12-14T02:55:41.454Z,3.32
2016-12-14T02:56:51.473Z,3.35
2016-12-14T02:58:01.503Z,3.32
2016-12-14T02:59:11.825Z,3.35
2016-12-14T03:00:21.831Z,3.29
2016-12-14T03:32:45.732Z,0.05
2016-12-14T03:33:55.724Z,0.05
2016-12-14T03:35:05.743Z,0.09
2016-12-14T03:36:15.446Z,0.17
2016-12-14T03:37:25.769Z,0.24
2016-12-14T03:38:36.131Z,0.37
2016-12-14T03:39:46.131Z,0.45
2016-12-14T03:40:56.146Z,0.66
2016-12-14T03:42:06.475Z,0.79
2016-12-14T03:43:16.508Z,0.94
2016-12-14T03:44:26.831Z,1.1
2016-12-14T03:45:36.856Z,1.35
2016-12-14T03:46:46.871Z,1.54
2016-12-14T03:47:57.220Z,1.71
2016-12-14T03:49:07.556Z,1.78
2016-12-14T03:50:17.877Z,1.97
2016-12-14T03:51:28.217Z,2.02
2016-12-14T03:52:38.263Z,2.16
2016-12-14T03:53:48.592Z,2.31
2016-12-14T03:54:58.291Z,2.47
2016-12-14T03:56:08.340Z,2.54
2016-12-14T03:57:18.679Z,2.62
2016-12-14T03:58:28.695Z,2.54
2016-12-14T03:59:39.011Z,2.76
2016-12-14T04:00:49.012Z,2.9
2016-12-14T04:01:58.725Z,2.87
2016-12-14T04:03:08.450Z,2.85
2016-12-14T04:04:18.150Z,2.93
2016-12-14T04:05:28.159Z,2.93
2016-12-14T04:06:38.177Z,3.01
2016-12-14T04:07:48.532Z,2.98
2016-12-14T04:08:58.551Z,3.02
2016-12-14T04:10:08.868Z,3.13
2016-12-14T04:11:19.199Z,3.11
2016-12-14T04:12:28.890Z,3.14
2016-12-14T04:13:39.222Z,3.17
2016-12-14T04:14:49.566Z,3.26
2016-12-14T04:15:59.894Z,3.32
2016-12-14T04:17:10.226Z,3.3
2016-12-14T04:18:19.936Z,3.29
2016-12-14T04:19:29.646Z,3.34
2016-12-14T04:20:39.337Z,3.35
2016-12-14T04:21:49.672Z,3.39
2016-12-14T04:23:00.010Z,3.37
2016-12-14T04:24:10.338Z,3.39
2016-12-14T04:25:20.058Z,3.32
2016-12-14T04:26:30.388Z,3.42
2016-12-14T04:27:40.402Z,3.32
2016-12-14T04:28:50.733Z,3.3
2016-12-14T04:30:01.067Z,3.35
2016-12-14T04:31:11.082Z,3.35
2016-12-14T04:32:21.403Z,3.3
2016-12-14T04:33:31.727Z,3.39
2016-12-14T04:34:41.747Z,3.32
2016-12-14T04:35:51.750Z,3.29
2016-12-14T04:37:01.805Z,3.27
2016-12-14T04:38:12.138Z,3.27
2016-12-14T04:39:22.468Z,3.27
2016-12-14T04:40:32.530Z,3.21
2016-12-14T04:41:42.860Z,3.2
2016-12-14T04:42:53.180Z,3.29
2016-12-14T04:44:03.500Z,3.3
2016-12-14T04:45:13.822Z,3.3
2016-12-14T04:46:23.534Z,3.37
2016-12-14T04:47:33.856Z,3.23
2016-12-14T04:48:43.562Z,3.26
2016-12-14T04:49:53.584Z,3.23
2016-12-14T04:51:03.604Z,3.17
2016-12-14T04:52:13.638Z,3.11
2016-12-14T04:53:23.652Z,3.16
2016-12-14T04:54:33.978Z,3.16
2016-12-14T04:55:43.993Z,3.3
2016-12-14T04:56:54.006Z,3.27
2016-12-14T04:58:03.747Z,3.26
2016-12-14T04:59:13.760Z,3.3
2016-12-14T05:00:23.770Z,3.34
2016-12-14T05:01:34.092Z,3.34
2016-12-14T05:02:44.102Z,3.32
2016-12-14T05:03:54.162Z,3.3
2016-12-14T05:05:04.177Z,3.37
2016-12-14T05:06:14.526Z,3.37
2016-12-14T05:07:24.863Z,3.35
2016-12-14T05:08:34.893Z,3.32
2016-12-14T05:09:44.618Z,3.34
2016-12-14T05:10:54.322Z,3.37
2016-12-14T05:12:04.656Z,3.34
2016-12-14T05:13:14.663Z,3.27
2016-12-14T05:14:24.997Z,3.39
2016-12-14T05:15:35.008Z,3.34
2016-12-14T05:16:45.039Z,3.35
2016-12-14T05:17:55.364Z,3.32
2016-12-14T05:19:05.679Z,3.39
2016-12-14T05:20:15.699Z,3.39
2016-12-14T05:21:26.031Z,3.37
2016-12-14T05:22:36.364Z,3.37
2016-12-14T05:23:46.673Z,3.35
2016-12-14T05:24:56.997Z,3.45
2016-12-14T05:26:07.008Z,3.54
2016-12-14T05:27:17.024Z,3.51
2016-12-14T05:28:27.353Z,3.57
2016-12-14T05:29:37.356Z,3.54
2016-12-14T05:30:47.914Z,3.56
2016-12-14T05:31:57.977Z,3.54
2016-12-14T05:33:07.674Z,3.49
2016-12-14T05:34:17.687Z,3.56
2016-12-14T05:35:27.406Z,3.53
2016-12-14T05:36:37.739Z,3.46
2016-12-14T05:37:48.069Z,3.51
2016-12-14T05:38:58.392Z,3.45
2016-12-14T05:40:08.713Z,3.53
2016-12-14T05:41:19.049Z,3.51
2016-12-14T05:42:29.081Z,3.39
2016-12-14T05:43:39.402Z,3.48
2016-12-14T05:44:49.420Z,3.45
2016-12-14T05:45:59.428Z,3.49
2016-12-14T05:47:09.439Z,3.49
2016-12-14T05:48:19.781Z,3.54
2016-12-14T05:49:30.112Z,3.54
2016-12-14T05:50:39.809Z,3.48
2016-12-14T05:51:50.152Z,3.49
2016-12-14T05:52:59.848Z,3.53
2016-12-14T05:54:09.858Z,3.57
2016-12-14T05:55:19.876Z,3.6
2016-12-14T05:56:30.282Z,3.54
2016-12-14T05:57:40.679Z,3.63
2016-12-14T05:58:50.763Z,3.66
2016-12-14T06:00:01.160Z,3.69
2016-12-14T06:01:11.188Z,3.64
2016-12-14T06:02:20.891Z,3.66
2016-12-14T06:03:31.217Z,3.64
2016-12-14T06:04:40.924Z,3.66
2016-12-14T06:05:51.256Z,3.6
2016-12-14T06:07:01.592Z,3.51
2016-12-14T06:08:11.299Z,3.57
2016-12-14T06:09:21.615Z,3.48
2016-12-14T06:10:31.628Z,3.49
2016-12-14T06:11:41.365Z,3.57
2016-12-14T06:12:51.066Z,3.54
2016-12-14T06:14:01.393Z,3.56
2016-12-14T06:15:11.719Z,3.54
2016-12-14T06:16:21.746Z,3.53
2016-12-14T06:17:32.069Z,3.53
2016-12-14T06:18:42.403Z,3.49
2016-12-14T06:19:52.417Z,3.51
2016-12-14T06:21:02.419Z,3.49
2016-12-14T06:22:12.441Z,3.48
2016-12-14T06:23:22.441Z,3.54
2016-12-14T06:24:32.454Z,3.51
2016-12-14T06:25:42.469Z,3.49
2016-12-14T06:26:52.496Z,3.51
2016-12-14T06:28:02.822Z,3.57
2016-12-14T06:29:12.839Z,3.57
2016-12-14T06:30:22.543Z,3.54
2016-12-14T06:31:32.555Z,3.57
2016-12-14T06:32:42.900Z,3.54
2016-12-14T06:33:53.237Z,3.54
2016-12-14T06:35:02.945Z,3.56
2016-12-14T06:36:12.955Z,3.61
2016-12-14T06:37:23.291Z,3.64
2016-12-14T06:38:33.613Z,3.72
2016-12-14T06:39:43.944Z,3.67
2016-12-14T06:40:54.267Z,3.67
2016-12-14T06:42:03.968Z,3.63
2016-12-14T06:43:13.677Z,3.71
2016-12-14T06:44:23.988Z,3.69
2016-12-14T06:45:34.309Z,3.66
2016-12-14T06:46:44.325Z,3.67
2016-12-14T06:47:54.653Z,3.61
2016-12-14T06:49:04.343Z,3.64
2016-12-14T06:50:14.690Z,3.6
2016-12-14T06:51:25.032Z,3.61
2016-12-14T06:52:35.039Z,3.66
2016-12-14T06:53:44.761Z,3.61
2016-12-14T06:54:54.773Z,3.69
2016-12-14T06:56:04.798Z,3.61
2016-12-14T06:57:15.117Z,3.61
2016-12-14T06:58:24.823Z,3.67
2016-12-14T06:59:35.190Z,3.72
2016-12-14T07:00:45.511Z,3.78
2016-12-14T07:01:55.553Z,3.75
2016-12-14T07:03:05.869Z,3.57
2016-12-14T07:04:16.115Z,3.76
2016-12-14T07:05:25.848Z,3.72
2016-12-14T07:06:35.865Z,3.76
2016-12-14T07:07:46.178Z,3.79
2016-12-14T07:08:56.204Z,3.85
2016-12-14T07:10:06.214Z,3.84
2016-12-14T07:11:16.221Z,3.96
2016-12-14T07:12:26.238Z,3.99
2016-12-14T07:13:36.566Z,4.08
2016-12-14T07:14:46.891Z,4.11
2016-12-14T07:15:56.597Z,4.17
2016-12-14T07:17:06.614Z,4.17
2016-12-14T07:18:16.661Z,4.32
2016-12-14T07:19:26.696Z,4.26
2016-12-14T07:20:36.386Z,4.39
2016-12-14T07:21:46.698Z,4.36
2016-12-14T07:22:56.715Z,4.32
2016-12-14T07:24:07.046Z,4.36
2016-12-14T07:25:17.392Z,4.54
2016-12-14T07:26:27.755Z,4.56
2016-12-14T07:27:38.095Z,4.46
2016-12-14T07:28:48.433Z,4.51
2016-12-14T07:29:58.433Z,4.51
2016-12-14T07:31:07.826Z,4.6
2016-12-14T07:32:17.536Z,4.61
2016-12-14T07:33:27.867Z,4.66
2016-12-14T07:34:37.887Z,4.61
2016-12-14T07:35:48.211Z,4.72
2016-12-14T07:36:58.225Z,4.78
2016-12-14T07:38:07.935Z,4.87
2016-12-14T07:39:18.258Z,4.94
2016-12-14T07:40:28.273Z,5
2016-12-14T07:41:38.631Z,5
2016-12-14T07:42:48.648Z,4.97
2016-12-14T07:43:58.667Z,4.98
2016-12-14T07:45:08.685Z,4.97
2016-12-14T07:46:18.702Z,5.05
2016-12-14T07:47:28.723Z,5.03
2016-12-14T07:48:38.776Z,5.05
2016-12-14T07:49:49.099Z,5.05
2016-12-14T07:50:59.431Z,5.16
2016-12-14T07:52:09.143Z,5.12
2016-12-14T07:53:19.498Z,5.13
2016-12-14T07:54:29.204Z,5.02
2016-12-14T07:55:39.212Z,5.09
2016-12-14T07:56:49.549Z,5.08
2016-12-14T07:57:59.563Z,5.06
2016-12-14T07:59:09.257Z,5.15
2016-12-14T08:00:19.587Z,5.15
2016-12-14T08:01:29.616Z,5.23
2016-12-14T08:02:39.640Z,5.2
2016-12-14T08:03:49.659Z,5.21
2016-12-14T08:04:59.672Z,5.1
2016-12-14T08:06:09.696Z,5.16
2016-12-14T08:07:20.256Z,5.1
2016-12-14T08:08:30.275Z,5.05
2016-12-14T08:09:40.288Z,5.05
2016-12-14T08:10:50.323Z,5.08
2016-12-14T08:12:00.674Z,4.98
2016-12-14T08:13:11.026Z,5
2016-12-14T08:14:20.743Z,5.15
2016-12-14T08:15:31.096Z,4.95
2016-12-14T08:16:40.814Z,5.06
2016-12-14T08:17:51.138Z,5.08
2016-12-14T08:19:00.839Z,4.98
2016-12-14T08:20:10.850Z,4.98
2016-12-14T08:21:21.224Z,5
2016-12-14T08:22:31.243Z,4.98
2016-12-14T08:23:41.587Z,5.03
2016-12-14T08:24:51.913Z,4.91
2016-12-14T08:26:01.930Z,4.83
2016-12-14T08:27:11.931Z,4.85
2016-12-14T08:28:21.649Z,4.85
2016-12-14T08:29:31.971Z,4.75
2016-12-14T08:30:42.311Z,4.79
2016-12-14T08:31:52.624Z,4.69
2016-12-14T08:33:02.954Z,4.75
2016-12-14T08:34:12.970Z,4.75
2016-12-14T08:35:23.279Z,4.71
2016-12-14T08:36:33.299Z,4.69
2016-12-14T08:37:43.017Z,4.72
2016-12-14T08:38:53.032Z,4.76
2016-12-14T08:40:03.374Z,4.74
2016-12-14T08:41:13.398Z,4.71
2016-12-14T08:42:23.717Z,4.66
2016-12-14T08:43:33.430Z,4.69
2016-12-14T08:44:43.757Z,4.65
2016-12-14T08:45:53.782Z,4.5
2016-12-14T08:47:04.120Z,4.42
2016-12-14T08:48:13.873Z,4.53
2016-12-14T08:49:24.198Z,4.35
2016-12-14T08:50:33.909Z,4.38
2016-12-14T08:51:43.617Z,4.32
2016-12-14T08:52:53.633Z,4.4
2016-12-14T08:54:04.051Z,4.29
2016-12-14T08:55:14.387Z,4.46
2016-12-14T08:56:24.719Z,4.32
2016-12-14T08:57:34.756Z,4.47
2016-12-14T08:58:44.755Z,4.66
2016-12-14T08:59:55.084Z,4.65
2016-12-14T09:01:05.124Z,4.74
2016-12-14T09:02:15.471Z,4.69
2016-12-14T09:03:25.804Z,4.66
2016-12-14T09:04:35.825Z,4.64
2016-12-14T09:05:46.151Z,4.66
2016-12-14T09:06:56.188Z,4.71
2016-12-14T09:08:06.214Z,4.61
2016-12-14T09:09:16.537Z,4.54
2016-12-14T09:10:26.549Z,4.5
2016-12-14T09:11:36.868Z,4.47
2016-12-14T09:12:46.892Z,4.54
2016-12-14T09:13:57.223Z,4.5
2016-12-14T09:15:07.594Z,4.56
2016-12-14T09:16:17.603Z,4.48
2016-12-14T09:17:27.643Z,4.42
2016-12-14T09:18:37.666Z,4.4
2016-12-14T09:19:47.986Z,4.39
2016-12-14T09:20:58.323Z,4.38
2016-12-14T09:22:08.655Z,4.38
2016-12-14T09:23:18.671Z,4.38
2016-12-14T09:24:28.699Z,4.4
2016-12-14T09:25:38.724Z,4.35
2016-12-14T09:26:48.759Z,4.44
2016-12-14T09:27:59.097Z,4.5
2016-12-14T09:29:09.099Z,4.5
2016-12-14T09:30:18.806Z,4.58
2016-12-14T09:31:28.823Z,4.6
2016-12-14T09:32:38.845Z,4.61
2016-12-14T09:33:48.237Z,4.65
2016-12-14T09:34:57.938Z,4.68
2016-12-14T09:36:07.966Z,4.66
2016-12-14T09:37:18.282Z,4.78
2016-12-14T09:38:28.622Z,4.84
2016-12-14T09:39:38.648Z,4.84
2016-12-14T09:40:48.967Z,4.87
2016-12-14T09:41:59.310Z,4.83
2016-12-14T09:43:09.620Z,5
2016-12-14T09:44:19.320Z,4.94
2016-12-14T09:45:29.036Z,4.97
2016-12-14T09:46:39.047Z,5.02
2016-12-14T09:47:49.059Z,5.05
2016-12-14T09:48:59.380Z,5.05
2016-12-14T09:50:09.711Z,5.15
2016-12-14T09:51:19.720Z,5.08
2016-12-14T09:52:30.063Z,5.13
2016-12-14T09:53:40.085Z,5.18
2016-12-14T09:54:50.137Z,5.33
2016-12-14T09:56:00.472Z,5.2
2016-12-14T09:57:10.794Z,5.21
2016-12-14T09:58:21.133Z,5.27
2016-12-14T09:59:31.458Z,5.31
2016-12-14T10:00:41.491Z,5.23
2016-12-14T10:01:51.506Z,5.24
2016-12-14T10:03:01.859Z,5.27
2016-12-14T10:04:12.180Z,5.27
2016-12-14T10:05:22.512Z,5.28
2016-12-14T10:06:32.548Z,5.33
2016-12-14T10:07:42.876Z,5.28
2016-12-14T10:08:53.206Z,5.37
2016-12-14T10:10:03.529Z,5.44
2016-12-14T10:11:13.226Z,5.45
2016-12-14T10:12:23.243Z,5.36
2016-12-14T10:13:33.597Z,5.49
2016-12-14T10:14:43.610Z,5.55
2016-12-14T10:15:53.635Z,5.6
2016-12-14T10:17:03.973Z,5.67
2016-12-14T10:18:13.996Z,5.78
2016-12-14T10:19:24.323Z,5.99
2016-12-14T10:20:34.659Z,6.15
2016-12-14T10:21:44.977Z,6.24
2016-12-14T10:22:55.308Z,6.33
2016-12-14T10:24:05.314Z,6.39
2016-12-14T10:25:15.675Z,6.49
2016-12-14T10:26:25.682Z,6.44
2016-12-14T10:27:35.735Z,6.52
2016-12-14T10:28:45.765Z,6.55
2016-12-14T10:29:56.091Z,6.55
2016-12-14T10:31:06.119Z,6.57
2016-12-14T10:32:16.462Z,6.57
2016-12-14T10:33:26.517Z,6.58
2016-12-14T10:34:36.856Z,6.55
2016-12-14T10:35:47.187Z,6.52
2016-12-14T10:36:57.519Z,6.49
2016-12-14T10:38:07.539Z,6.6
2016-12-14T10:39:17.561Z,6.67
2016-12-14T10:40:27.897Z,6.62
2016-12-14T10:41:37.969Z,6.64
2016-12-14T10:42:48.291Z,6.52
2016-12-14T10:43:58.311Z,6.52
2016-12-14T10:45:08.325Z,6.57
2016-12-14T10:46:18.351Z,6.47
2016-12-14T10:47:28.677Z,6.47
2016-12-14T10:48:38.390Z,6.4
2016-12-14T10:49:48.712Z,6.37
2016-12-14T10:50:58.738Z,6.29
2016-12-14T10:52:09.075Z,6.33
2016-12-14T10:53:19.421Z,6.29
2016-12-14T10:54:29.748Z,6.36
2016-12-14T10:55:39.766Z,6.2
2016-12-14T10:56:49.773Z,6.33
2016-12-14T10:58:00.130Z,6.21
2016-12-14T10:59:10.465Z,6.34
2016-12-14T11:00:20.793Z,6.28
2016-12-14T11:01:31.114Z,6.33
2016-12-14T11:02:41.127Z,6.34
2016-12-14T11:03:50.862Z,6.39
2016-12-14T11:05:00.884Z,6.4
2016-12-14T11:06:10.585Z,6.33
2016-12-14T11:07:20.973Z,6.34
2016-12-14T11:08:31.310Z,6.34
2016-12-14T11:09:41.639Z,6.49
2016-12-14T11:10:51.657Z,6.46
2016-12-14T11:12:01.379Z,6.46
2016-12-14T11:13:11.406Z,6.43
2016-12-14T11:14:21.730Z,6.52
2016-12-14T11:15:32.052Z,6.54
2016-12-14T11:16:42.380Z,6.61
2016-12-14T11:17:52.714Z,6.64
2016-12-14T11:19:03.045Z,6.64
2016-12-14T11:20:13.387Z,6.65
2016-12-14T11:21:23.709Z,6.64
2016-12-14T11:22:34.258Z,6.7
2016-12-14T11:23:45.175Z,6.67
2016-12-14T11:24:55.824Z,6.67
2016-12-14T11:26:20.826Z,6.62
2016-12-14T11:27:30.805Z,6.64
2016-12-14T11:28:41.626Z,6.68
2016-12-14T11:29:52.548Z,6.76
2016-12-14T11:31:03.467Z,6.68
2016-12-14T11:32:13.490Z,6.68
2016-12-14T11:33:23.651Z,6.67
2016-12-14T11:34:35.440Z,6.76
2016-12-14T11:35:45.940Z,6.75
2016-12-14T11:36:56.306Z,6.68
2016-12-14T11:38:08.358Z,6.76
2016-12-14T11:39:20.684Z,6.67
2016-12-14T11:40:31.292Z,6.78
2016-12-14T11:41:41.019Z,6.91
2016-12-14T11:42:51.054Z,6.8
2016-12-14T11:44:01.393Z,6.86
2016-12-14T11:45:10.809Z,6.94
2016-12-14T11:46:20.834Z,7
2016-12-14T11:47:31.182Z,6.97
2016-12-14T11:48:41.528Z,6.91
2016-12-14T11:49:51.280Z,6.93
2016-12-14T11:51:01.637Z,6.88
2016-12-14T11:52:11.979Z,6.86
2016-12-14T11:53:22.315Z,6.9
2016-12-14T11:54:32.357Z,6.86
2016-12-14T11:55:42.675Z,6.98
2016-12-14T11:56:52.703Z,6.88
2016-12-14T11:58:03.057Z,7
2016-12-14T11:59:12.781Z,6.88
2016-12-14T12:00:23.121Z,6.88
2016-12-14T12:01:33.454Z,6.9
2016-12-14T12:02:43.468Z,6.93
2016-12-14T12:03:53.819Z,6.83
2016-12-14T12:05:03.528Z,6.83
2016-12-14T12:06:13.245Z,6.72
2016-12-14T12:07:23.585Z,6.72
2016-12-14T12:08:33.604Z,6.62
2016-12-14T12:09:43.925Z,6.68
2016-12-14T12:10:54.258Z,6.73
2016-12-14T12:12:04.582Z,6.7
2016-12-14T12:13:14.604Z,6.68
2016-12-14T12:14:24.949Z,6.78
2016-12-14T12:15:35.278Z,6.7
2016-12-14T12:16:45.306Z,6.75
2016-12-14T12:17:55.670Z,6.72
2016-12-14T12:19:05.695Z,6.78
2016-12-14T12:20:16.030Z,6.78
2016-12-14T12:21:26.362Z,6.73
2016-12-14T12:22:36.691Z,6.73
2016-12-14T12:23:47.005Z,6.62
2016-12-14T12:24:56.721Z,6.73
2016-12-14T12:26:06.762Z,6.75
2016-12-14T12:27:17.076Z,6.64
2016-12-14T12:28:27.137Z,6.78
2016-12-14T12:29:37.484Z,6.82
2016-12-14T12:30:47.190Z,6.76
2016-12-14T12:31:56.908Z,6.82
2016-12-14T12:33:07.235Z,6.86
2016-12-14T12:34:17.236Z,6.93
2016-12-14T12:35:27.247Z,6.95
2016-12-14T12:36:36.648Z,7.01
2016-12-14T12:37:46.666Z,7
2016-12-14T12:38:57.058Z,6.95
2016-12-14T12:40:07.072Z,6.94
2016-12-14T12:41:17.102Z,6.9
2016-12-14T12:42:27.106Z,6.78
2016-12-14T12:43:37.129Z,6.86
2016-12-14T12:44:47.453Z,6.8
2016-12-14T12:45:57.176Z,6.73
2016-12-14T12:47:07.194Z,6.7
2016-12-14T12:48:17.513Z,6.65
2016-12-14T12:49:27.241Z,6.68
2016-12-14T12:50:37.591Z,6.72
2016-12-14T12:51:47.907Z,6.62
2016-12-14T12:52:57.932Z,6.82
2016-12-14T12:54:07.942Z,6.75
2016-12-14T12:55:18.281Z,6.76
2016-12-14T12:56:28.604Z,6.75
2016-12-14T12:57:38.636Z,6.67
2016-12-14T12:58:48.977Z,6.7
2016-12-14T12:59:59.322Z,6.68
2016-12-14T13:01:09.349Z,6.6
2016-12-14T13:02:19.671Z,6.49
2016-12-14T13:03:29.686Z,6.58
2016-12-14T13:04:40.024Z,6.55
2016-12-14T13:05:50.361Z,6.4
2016-12-14T13:07:00.064Z,6.42
2016-12-14T13:08:10.417Z,6.47
2016-12-14T13:09:20.752Z,6.39
2016-12-14T13:10:31.098Z,6.39
2016-12-14T13:11:41.136Z,6.28
2016-12-14T13:12:50.545Z,6.34
2016-12-14T13:14:00.897Z,6.15
2016-12-14T13:15:11.255Z,6.15
2016-12-14T13:16:21.031Z,6.17
2016-12-14T13:17:31.391Z,6.13
2016-12-14T13:18:41.105Z,6.05
2016-12-14T13:19:51.449Z,6.05
2016-12-14T13:21:02.411Z,6.06
2016-12-14T13:22:12.635Z,6.02
2016-12-14T13:23:22.361Z,6.05
2016-12-14T13:24:32.413Z,6.06
2016-12-14T13:25:44.532Z,6
2016-12-14T13:26:54.548Z,5.95
2016-12-14T13:28:04.892Z,5.95
2016-12-14T13:29:14.589Z,5.89
2016-12-14T13:30:24.947Z,5.84
2016-12-14T13:31:35.288Z,5.78
2016-12-14T13:32:45.629Z,5.84
2016-12-14T13:33:55.651Z,5.96
2016-12-14T13:35:05.979Z,5.87
2016-12-14T13:36:16.024Z,5.82
2016-12-14T13:37:26.370Z,5.85
2016-12-14T13:38:36.703Z,5.91
2016-12-14T13:39:47.045Z,5.88
2016-12-14T13:40:56.485Z,5.99
2016-12-14T13:42:06.867Z,5.96
2016-12-14T13:43:16.894Z,5.91
2016-12-14T13:44:27.216Z,5.92
2016-12-14T13:45:37.606Z,5.99
2016-12-14T13:46:47.633Z,5.95
2016-12-14T13:47:57.979Z,5.84
2016-12-14T13:49:08.017Z,5.8
2016-12-14T13:50:18.059Z,5.72
2016-12-14T13:51:28.087Z,5.73
2016-12-14T13:52:38.159Z,5.69
2016-12-14T13:53:48.519Z,5.69
2016-12-14T13:54:58.861Z,5.66
2016-12-14T13:56:08.591Z,5.77
2016-12-14T13:57:18.608Z,5.72
2016-12-14T13:58:28.631Z,5.8
2016-12-14T13:59:38.658Z,5.8
2016-12-14T14:00:49.010Z,5.95
2016-12-14T14:01:58.740Z,5.84
2016-12-14T14:03:08.475Z,5.82
2016-12-14T14:04:18.554Z,5.89
2016-12-14T14:05:28.925Z,5.84
2016-12-14T14:06:39.293Z,5.92
2016-12-14T14:07:49.649Z,5.88
2016-12-14T14:08:59.693Z,5.8
2016-12-14T14:10:09.727Z,5.82
2016-12-14T14:11:20.110Z,5.85
2016-12-14T14:12:30.144Z,5.92
2016-12-14T14:13:40.494Z,5.85
2016-12-14T14:14:50.819Z,5.82
2016-12-14T14:16:01.197Z,5.89
2016-12-14T14:17:11.533Z,5.85
2016-12-14T14:18:21.941Z,5.78
2016-12-14T14:19:32.336Z,5.84
2016-12-14T14:20:42.349Z,5.84
2016-12-14T14:21:52.683Z,5.85
2016-12-14T14:23:03.046Z,5.87
2016-12-14T14:24:13.062Z,5.78
2016-12-14T14:25:23.413Z,5.81
2016-12-14T14:26:33.767Z,5.87
2016-12-14T14:27:43.802Z,5.81
2016-12-14T14:28:53.547Z,5.77
2016-12-14T14:30:03.885Z,5.78
2016-12-14T14:31:13.911Z,5.77
2016-12-14T14:32:23.951Z,5.87
2016-12-14T14:33:34.000Z,5.82
2016-12-14T14:34:44.052Z,5.8
2016-12-14T14:35:54.400Z,5.82
2016-12-14T14:37:04.117Z,5.81
2016-12-14T14:38:14.466Z,5.84
2016-12-14T14:39:24.179Z,5.77
2016-12-14T14:40:33.878Z,5.81
2016-12-14T14:41:44.209Z,5.88
2016-12-14T14:42:54.535Z,5.8
2016-12-14T14:44:04.881Z,5.8
2016-12-14T14:45:15.219Z,5.81
2016-12-14T14:46:24.948Z,5.73
2016-12-14T14:47:34.972Z,5.85
2016-12-14T14:48:45.337Z,5.8
2016-12-14T14:49:55.369Z,5.78
2016-12-14T14:51:05.722Z,5.75
2016-12-14T14:52:15.766Z,5.81
2016-12-14T14:53:26.097Z,5.82
2016-12-14T14:54:36.446Z,5.8
2016-12-14T14:55:46.148Z,5.89
2016-12-14T14:56:56.495Z,5.89
2016-12-14T14:58:06.849Z,5.84
2016-12-14T14:59:16.878Z,5.78
2016-12-14T15:00:26.590Z,5.89
2016-12-14T15:01:36.604Z,5.82
2016-12-14T15:02:46.942Z,5.87
2016-12-14T15:03:56.968Z,5.78
2016-12-14T15:05:06.697Z,5.96
2016-12-14T15:06:17.030Z,6
2016-12-14T15:07:26.749Z,6.05
2016-12-14T15:08:37.092Z,6.03
2016-12-14T15:09:47.127Z,5.99
2016-12-14T15:10:57.170Z,5.88
2016-12-14T15:12:06.883Z,6.02
2016-12-14T15:13:17.223Z,5.85
2016-12-14T15:14:27.555Z,5.92
2016-12-14T15:15:37.874Z,5.92
2016-12-14T15:16:48.211Z,5.91
2016-12-14T15:17:58.236Z,5.95
2016-12-14T15:19:08.284Z,5.91
2016-12-14T15:20:18.634Z,5.92
2016-12-14T15:21:28.992Z,5.87
2016-12-14T15:22:39.027Z,5.92
2016-12-14T15:23:49.378Z,5.95
2016-12-14T15:24:59.385Z,5.96
2016-12-14T15:26:09.413Z,5.95
2016-12-14T15:27:19.434Z,6
2016-12-14T15:28:29.679Z,5.98
2016-12-14T15:29:40.023Z,6
2016-12-14T15:30:50.358Z,5.85
2016-12-14T15:32:00.383Z,5.89
2016-12-14T15:33:10.435Z,5.85
2016-12-14T15:34:20.172Z,5.88
2016-12-14T15:35:30.502Z,5.73
2016-12-14T15:36:40.850Z,5.78
2016-12-14T15:37:50.867Z,5.77
2016-12-14T15:39:01.220Z,5.8
2016-12-14T15:40:10.939Z,5.82
2016-12-14T15:41:20.962Z,5.84
2016-12-14T15:42:31.012Z,5.84
2016-12-14T15:43:41.342Z,5.78
2016-12-14T15:44:51.352Z,5.8
2016-12-14T15:46:01.394Z,5.72
2016-12-14T15:47:11.737Z,5.77
2016-12-14T15:48:21.466Z,5.78
2016-12-14T15:49:31.494Z,5.78
2016-12-14T15:50:41.845Z,5.78
2016-12-14T15:51:51.851Z,5.78
2016-12-14T15:53:01.912Z,5.77
2016-12-14T15:54:11.940Z,5.8
2016-12-14T15:55:22.286Z,5.81
2016-12-14T15:56:32.624Z,5.8
2016-12-14T15:57:42.991Z,5.7
2016-12-14T15:58:53.323Z,5.8
2016-12-14T16:00:03.648Z,5.8
2016-12-14T16:01:13.384Z,5.67
2016-12-14T16:02:22.796Z,5.69
2016-12-14T16:03:33.135Z,5.77
2016-12-14T16:04:43.179Z,5.73
2016-12-14T16:05:53.247Z,5.73
2016-12-14T16:07:03.631Z,5.75
2016-12-14T16:08:13.977Z,5.67
2016-12-14T16:09:23.996Z,5.7